createdAt,value
2018-07-25T00:01:46.682Z,27.00
2018-07-25T00:06:43.915Z,26.90
2018-07-25T00:11:41.170Z,26.80
2018-07-25T00:14:09.838Z,26.80
2018-07-25T00:16:38.570Z,26.70
2018-07-25T00:21:35.685Z,26.70
2018-07-25T00:24:04.409Z,26.60
2018-07-25T00:26:33.181Z,26.60
2018-07-25T00:29:02.202Z,26.60
2018-07-25T00:31:30.947Z,26.60
2018-07-25T00:38:56.452Z,26.50
2018-07-25T00:41:25.165Z,26.50
2018-07-25T00:43:53.903Z,26.50
2018-07-25T00:46:22.658Z,26.50
2018-07-25T00:48:51.380Z,26.50
2018-07-25T00:51:20.161Z,26.50
2018-07-25T00:53:48.830Z,26.50
2018-07-25T00:56:17.604Z,26.40
2018-07-25T00:58:46.255Z,26.40
2018-07-25T01:01:14.989Z,26.40
2018-07-25T01:03:43.887Z,26.30
2018-07-25T01:06:12.591Z,26.30
2018-07-25T01:08:41.354Z,26.30
2018-07-25T01:11:10.704Z,26.20
2018-07-25T01:13:39.442Z,26.20
2018-07-25T01:16:08.185Z,26.20
2018-07-25T01:18:36.925Z,26.20
2018-07-25T01:21:05.593Z,26.20
2018-07-25T01:23:34.285Z,26.20
2018-07-25T01:26:03.017Z,26.20
2018-07-25T01:33:28.478Z,26.00
2018-07-25T01:35:57.196Z,26.00
2018-07-25T01:38:25.860Z,26.00
2018-07-25T01:40:54.581Z,26.00
2018-07-25T01:43:23.286Z,25.90
2018-07-25T01:45:52.015Z,25.90
2018-07-25T01:48:20.706Z,25.90
2018-07-25T01:55:46.197Z,25.80
2018-07-25T01:58:14.877Z,25.80
2018-07-25T02:05:42.203Z,25.70
2018-07-25T02:10:43.358Z,25.70
2018-07-25T02:13:13.145Z,25.70
2018-07-25T02:18:10.338Z,25.60
2018-07-25T02:20:39.005Z,25.50
2018-07-25T02:23:07.702Z,25.50
2018-07-25T02:30:33.264Z,25.40
2018-07-25T02:35:30.394Z,25.40
2018-07-25T02:37:59.089Z,25.40
2018-07-25T02:40:27.784Z,25.40
2018-07-25T02:42:56.491Z,25.40
2018-07-25T02:47:53.582Z,25.40
2018-07-25T02:50:22.322Z,25.40
2018-07-25T02:52:50.995Z,25.40
2018-07-25T02:55:19.696Z,25.30
2018-07-25T02:57:48.369Z,25.20
2018-07-25T03:00:17.104Z,25.20
2018-07-25T03:02:45.836Z,25.10
2018-07-25T03:07:42.990Z,25.10
2018-07-25T03:10:11.663Z,25.00
2018-07-25T03:12:40.397Z,25.00
2018-07-25T03:17:37.480Z,25.00
2018-07-25T03:20:06.146Z,25.00
2018-07-25T03:22:34.845Z,25.00
2018-07-25T03:27:31.982Z,24.90
2018-07-25T03:32:29.061Z,24.90
2018-07-25T03:34:57.754Z,26.00
2018-07-25T03:39:54.832Z,24.80
2018-07-25T03:44:51.858Z,24.70
2018-07-25T03:49:48.982Z,24.80
2018-07-25T03:52:17.719Z,24.80
2018-07-25T03:57:14.864Z,24.80
2018-07-25T03:59:43.615Z,24.80
2018-07-25T04:02:12.497Z,24.80
2018-07-25T04:09:38.562Z,24.80
2018-07-25T04:12:07.224Z,24.80
2018-07-25T04:17:04.325Z,24.90
2018-07-25T04:19:33.090Z,24.80
2018-07-25T04:24:30.185Z,24.80
2018-07-25T04:26:58.899Z,24.90
2018-07-25T04:29:28.178Z,24.90
2018-07-25T04:31:56.869Z,24.90
2018-07-25T04:34:25.603Z,24.90
2018-07-25T04:36:54.310Z,25.00
2018-07-25T04:39:23.088Z,25.00
2018-07-25T04:41:51.766Z,25.00
2018-07-25T04:44:20.469Z,25.00
2018-07-25T04:54:15.196Z,25.10
2018-07-25T05:01:40.740Z,25.10
2018-07-25T05:04:09.436Z,25.20
2018-07-25T05:09:07.789Z,25.40
2018-07-25T05:11:36.578Z,25.60
2018-07-25T05:21:32.487Z,26.10
2018-07-25T05:28:58.334Z,26.30
2018-07-25T05:31:27.052Z,26.40
2018-07-25T05:36:24.146Z,26.70
2018-07-25T05:38:52.880Z,26.90
2018-07-25T05:41:21.609Z,27.30
2018-07-25T05:43:50.272Z,27.60
2018-07-25T05:58:42.340Z,30.80
2018-07-25T06:01:10.878Z,30.60
2018-07-25T06:03:39.547Z,31.40
2018-07-25T06:06:08.317Z,32.50
2018-07-25T06:08:37.211Z,32.60
2018-07-25T06:11:06.503Z,34.10
2018-07-25T06:13:35.217Z,34.20
2018-07-25T06:16:04.137Z,36.40
2018-07-25T06:18:32.850Z,37.30
2018-07-25T06:21:01.568Z,37.30
2018-07-25T06:25:59.028Z,38.90
2018-07-25T06:28:27.745Z,39.60
2018-07-25T06:30:56.420Z,40.20
2018-07-25T06:33:25.117Z,40.40
2018-07-25T06:35:53.785Z,39.80
2018-07-25T06:45:47.649Z,34.80
2018-07-25T06:48:16.681Z,33.80
2018-07-25T06:50:45.461Z,33.10
2018-07-25T06:53:14.124Z,32.60
2018-07-25T06:55:43.005Z,32.70
2018-07-25T06:58:11.684Z,32.90
2018-07-25T07:00:40.374Z,34.70
2018-07-25T07:03:09.030Z,36.70
2018-07-25T07:05:37.830Z,38.10
2018-07-25T07:08:07.163Z,39.50
2018-07-25T07:10:35.857Z,40.60
2018-07-25T07:13:04.605Z,41.80
2018-07-25T07:15:33.280Z,42.70
2018-07-25T07:25:27.176Z,45.40
2018-07-25T07:27:55.877Z,45.50
2018-07-25T07:30:24.548Z,45.50
2018-07-25T07:32:53.257Z,45.60
2018-07-25T07:37:50.400Z,47.00
2018-07-25T07:40:19.086Z,47.30
2018-07-25T07:42:47.789Z,47.50
2018-07-25T07:45:16.468Z,47.50
2018-07-25T07:47:45.220Z,47.80
2018-07-25T07:52:42.318Z,47.70
2018-07-25T07:55:11.041Z,48.60
2018-07-25T07:57:39.679Z,48.40
2018-07-25T08:00:08.418Z,48.40
2018-07-25T08:05:05.921Z,48.60
2018-07-25T08:07:34.520Z,48.50
2018-07-25T08:10:09.655Z,48.70
2018-07-25T08:12:38.332Z,49.20
2018-07-25T08:15:07.286Z,49.30
2018-07-25T08:17:35.969Z,49.40
2018-07-25T08:20:04.709Z,49.90
2018-07-25T08:22:34.297Z,49.70
2018-07-25T08:25:03.016Z,49.90
2018-07-25T08:27:31.686Z,49.70
2018-07-25T08:30:00.442Z,49.70
2018-07-25T08:32:29.598Z,50.20
2018-07-25T08:34:58.263Z,50.20
2018-07-25T08:37:27.989Z,50.60
2018-07-25T08:39:56.661Z,50.80
2018-07-25T08:42:25.328Z,51.20
2018-07-25T08:44:55.024Z,51.30
2018-07-25T08:47:23.706Z,51.50
2018-07-25T08:49:52.391Z,51.50
2018-07-25T08:52:21.110Z,51.70
2018-07-25T08:54:49.854Z,51.70
2018-07-25T08:59:46.997Z,52.50
2018-07-25T09:09:40.947Z,52.60
